createdAt,value
2019-04-28T00:01:44.449Z,2.85
2019-04-28T00:04:15.594Z,3.10
2019-04-28T00:06:47.030Z,3.95
2019-04-28T00:09:18.970Z,3.37
2019-04-28T00:11:52.698Z,3.05
2019-04-28T00:14:22.339Z,3.07
2019-04-28T00:16:52.534Z,3.40
2019-04-28T00:19:25.376Z,2.98
2019-04-28T00:22:05.933Z,2.83
2019-04-28T00:24:55.297Z,2.52
2019-04-28T00:27:28.659Z,2.98
2019-04-28T00:30:14.617Z,3.37
2019-04-28T00:32:47.097Z,3.40
2019-04-28T00:35:16.712Z,3.25
2019-04-28T00:37:51.669Z,3.27
2019-04-28T00:40:24.341Z,3.67
2019-04-28T00:42:57.968Z,3.60
2019-04-28T00:45:33.107Z,2.85
2019-04-28T00:48:07.991Z,3.65
2019-04-28T00:50:41.377Z,3.45
2019-04-28T00:53:12.401Z,3.33
2019-04-28T00:55:51.631Z,3.58
2019-04-28T00:58:27.132Z,3.80
2019-04-28T01:01:01.481Z,3.00
2019-04-28T01:03:32.611Z,3.70
2019-04-28T01:06:02.114Z,3.08
2019-04-28T01:08:36.480Z,3.50
2019-04-28T01:11:12.627Z,3.22
2019-04-28T01:13:47.818Z,3.65
2019-04-28T01:16:27.274Z,2.87
2019-04-28T01:19:14.756Z,2.77
2019-04-28T01:22:04.155Z,3.83
2019-04-28T01:24:39.797Z,3.02
2019-04-28T01:27:30.547Z,2.83
2019-04-28T01:30:07.983Z,3.52
2019-04-28T01:32:35.567Z,3.12
2019-04-28T01:35:06.761Z,2.50
2019-04-28T01:37:36.264Z,3.00
2019-04-28T01:40:09.422Z,4.03
2019-04-28T01:42:41.243Z,3.67
2019-04-28T01:45:10.994Z,3.20
2019-04-28T01:47:42.016Z,3.33
2019-04-28T01:50:11.695Z,3.37
2019-04-28T01:52:41.354Z,3.60
2019-04-28T01:55:14.955Z,3.87
2019-04-28T01:57:44.373Z,3.67
2019-04-28T02:00:22.881Z,3.60
2019-04-28T02:02:48.193Z,3.27
2019-04-28T02:05:19.683Z,3.00
2019-04-28T02:07:50.575Z,3.45
2019-04-28T02:10:21.802Z,3.55
2019-04-28T02:12:51.495Z,3.65
2019-04-28T02:15:25.759Z,3.83
2019-04-28T02:17:55.315Z,3.25
2019-04-28T02:20:24.889Z,3.22
2019-04-28T02:22:59.913Z,2.62
2019-04-28T02:25:29.802Z,2.58
2019-04-28T02:28:01.254Z,3.17
2019-04-28T02:30:42.181Z,4.15
2019-04-28T02:33:05.228Z,3.07
2019-04-28T02:35:35.736Z,2.55
2019-04-28T02:38:05.267Z,2.58
2019-04-28T02:40:36.728Z,2.60
2019-04-28T02:43:06.602Z,2.25
2019-04-28T02:45:41.206Z,2.02
2019-04-28T02:48:14.654Z,2.10
2019-04-28T02:50:52.844Z,1.87
2019-04-28T02:53:23.983Z,1.90
2019-04-28T02:55:54.705Z,2.10
2019-04-28T02:58:24.207Z,1.87
2019-04-28T03:01:08.298Z,2.42
2019-04-28T03:03:30.635Z,2.58
2019-04-28T03:06:01.476Z,1.77
2019-04-28T03:08:30.750Z,1.80
2019-04-28T03:11:01.093Z,2.10
2019-04-28T03:13:31.820Z,2.65
2019-04-28T03:16:01.834Z,2.70
2019-04-28T03:18:31.899Z,3.35
2019-04-28T03:21:04.222Z,2.72
2019-04-28T03:23:33.994Z,2.72
2019-04-28T03:26:11.382Z,2.72
2019-04-28T03:28:45.232Z,3.22
2019-04-28T03:31:47.704Z,2.85
2019-04-28T03:33:55.660Z,3.33
2019-04-28T03:36:23.764Z,3.22
2019-04-28T03:38:53.455Z,3.20
2019-04-28T03:41:22.931Z,2.95
2019-04-28T03:43:52.997Z,3.47
2019-04-28T03:46:34.008Z,3.25
2019-04-28T03:49:05.532Z,3.27
2019-04-28T03:51:34.965Z,2.37
2019-04-28T03:54:06.375Z,2.65
2019-04-28T03:56:35.798Z,3.00
2019-04-28T03:59:11.060Z,2.42
2019-04-28T04:01:55.979Z,2.70
2019-04-28T04:04:13.191Z,2.47
2019-04-28T04:06:42.735Z,2.95
2019-04-28T04:09:12.201Z,2.35
2019-04-28T04:11:44.316Z,2.62
2019-04-28T04:14:16.449Z,2.37
2019-04-28T04:16:53.203Z,1.80
2019-04-28T04:19:30.289Z,2.17
2019-04-28T04:22:00.197Z,2.42
2019-04-28T04:24:30.649Z,2.33
2019-04-28T04:27:00.881Z,2.33
2019-04-28T04:29:31.481Z,2.00
2019-04-28T04:32:11.674Z,2.62
2019-04-28T04:34:34.983Z,2.58
2019-04-28T04:37:04.512Z,2.35
2019-04-28T04:39:35.014Z,2.58
2019-04-28T04:42:04.619Z,2.30
2019-04-28T04:44:37.997Z,2.80
2019-04-28T04:47:10.879Z,2.90
2019-04-28T04:49:45.054Z,2.25
2019-04-28T04:54:55.628Z,2.20
2019-04-28T04:57:32.695Z,2.90
2019-04-28T05:00:06.135Z,2.62
2019-04-28T05:02:52.058Z,2.95
2019-04-28T05:05:20.301Z,2.50
2019-04-28T05:07:50.800Z,2.70
2019-04-28T05:10:23.282Z,2.90
2019-04-28T05:12:53.710Z,2.27
2019-04-28T05:15:26.741Z,2.92
2019-04-28T05:18:00.193Z,2.52
2019-04-28T05:20:30.312Z,2.47
2019-04-28T05:23:09.612Z,2.52
2019-04-28T05:25:42.320Z,3.10
2019-04-28T05:28:11.760Z,2.45
2019-04-28T05:30:45.310Z,2.40
2019-04-28T05:33:16.544Z,2.10
2019-04-28T05:35:54.554Z,2.67
2019-04-28T05:38:21.651Z,2.30
2019-04-28T05:40:51.306Z,2.60
2019-04-28T05:43:23.322Z,2.50
2019-04-28T05:46:00.597Z,3.08
2019-04-28T05:48:37.610Z,3.20
2019-04-28T05:51:09.440Z,4.00
2019-04-28T05:53:53.744Z,3.35
2019-04-28T05:56:34.215Z,4.10
2019-04-28T05:59:14.957Z,3.55
2019-04-28T06:02:00.470Z,3.55
2019-04-28T06:04:30.475Z,3.10
2019-04-28T06:07:02.875Z,3.30
2019-04-28T06:09:39.840Z,3.62
2019-04-28T06:12:17.342Z,3.10
2019-04-28T06:14:51.095Z,2.77
2019-04-28T06:17:22.888Z,3.45
2019-04-28T06:19:54.203Z,3.25
2019-04-28T06:22:31.141Z,3.47
2019-04-28T06:25:02.636Z,3.35
2019-04-28T06:27:32.757Z,3.42
2019-04-28T06:30:15.045Z,3.67
2019-04-28T06:32:42.045Z,3.52
2019-04-28T06:35:11.614Z,3.75
2019-04-28T06:37:42.181Z,3.30
2019-04-28T06:40:25.442Z,3.25
2019-04-28T06:45:29.950Z,3.75
2019-04-28T06:48:01.219Z,3.42
2019-04-28T06:50:30.807Z,3.30
2019-04-28T06:53:03.014Z,3.47
2019-04-28T06:55:34.132Z,3.20
2019-04-28T06:58:09.366Z,3.22
2019-04-28T07:00:40.640Z,3.30
2019-04-28T07:03:22.607Z,3.37
2019-04-28T07:05:44.673Z,3.20
2019-04-28T07:08:14.804Z,2.80
2019-04-28T07:10:46.480Z,2.60
2019-04-28T07:13:16.036Z,2.83
2019-04-28T07:15:46.566Z,2.87
2019-04-28T07:18:26.364Z,2.75
2019-04-28T07:21:10.379Z,2.83
2019-04-28T07:23:42.540Z,2.80
2019-04-28T07:26:12.774Z,2.70
2019-04-28T07:28:49.719Z,2.92
2019-04-28T07:31:22.018Z,3.15
2019-04-28T07:33:58.319Z,3.58
2019-04-28T07:36:29.533Z,3.50
2019-04-28T07:39:10.038Z,3.25
2019-04-28T07:41:39.284Z,3.25
2019-04-28T07:44:10.418Z,3.30
2019-04-28T07:46:40.639Z,3.20
2019-04-28T07:49:11.911Z,3.22
2019-04-28T07:52:01.580Z,3.77
2019-04-28T07:54:34.986Z,3.70
2019-04-28T07:57:05.844Z,3.60
2019-04-28T07:59:36.819Z,3.80
2019-04-28T08:02:08.306Z,3.98
2019-04-28T08:04:37.662Z,4.10
2019-04-28T08:07:07.157Z,4.08
2019-04-28T08:09:38.487Z,3.90
2019-04-28T08:12:08.486Z,4.22
2019-04-28T08:14:41.762Z,4.08
2019-04-28T08:17:13.885Z,4.42
2019-04-28T08:19:45.641Z,4.60
2019-04-28T08:22:15.213Z,4.45
2019-04-28T08:24:46.321Z,4.72
2019-04-28T08:27:17.734Z,4.22
2019-04-28T08:29:58.785Z,4.00
2019-04-28T08:32:37.338Z,4.78
2019-04-28T08:35:07.450Z,4.45
2019-04-28T08:37:36.930Z,5.10
2019-04-28T08:40:07.913Z,4.60
2019-04-28T08:42:37.451Z,5.17
2019-04-28T08:45:08.120Z,4.97
2019-04-28T08:47:39.877Z,4.58
2019-04-28T08:50:09.776Z,4.55
2019-04-28T08:52:40.180Z,4.70
2019-04-28T08:55:13.959Z,5.05
2019-04-28T08:57:48.952Z,5.40
2019-04-28T09:00:27.221Z,4.80
2019-04-28T09:03:02.683Z,5.17
2019-04-28T09:05:32.128Z,3.95
2019-04-28T09:08:01.852Z,3.60
2019-04-28T09:10:35.947Z,3.98
2019-04-28T09:13:10.421Z,4.28
2019-04-28T09:15:48.733Z,4.40
2019-04-28T09:18:21.104Z,4.83
2019-04-28T09:20:54.347Z,5.28
2019-04-28T09:23:27.028Z,4.60
2019-04-28T09:26:02.106Z,5.42
2019-04-28T09:28:31.626Z,5.10
2019-04-28T09:31:02.508Z,4.87
2019-04-28T09:33:32.682Z,5.08
2019-04-28T09:36:02.910Z,4.65
2019-04-28T09:38:33.419Z,4.87
2019-04-28T09:41:05.184Z,4.53
2019-04-28T09:43:48.576Z,3.70
2019-04-28T09:46:22.643Z,3.98
2019-04-28T09:48:52.292Z,3.47
2019-04-28T09:51:21.876Z,3.58
2019-04-28T09:53:51.519Z,4.22
2019-04-28T09:56:20.915Z,3.75
2019-04-28T09:58:55.068Z,3.77
2019-04-28T10:01:25.550Z,3.92
2019-04-28T10:03:55.225Z,3.45
2019-04-28T10:06:32.990Z,3.25
2019-04-28T10:09:07.278Z,3.72
2019-04-28T10:11:36.909Z,3.42
2019-04-28T10:14:08.916Z,4.15
2019-04-28T10:16:38.420Z,3.62
2019-04-28T10:19:08.863Z,3.42
2019-04-28T10:21:38.312Z,7.28
2019-04-28T10:24:12.633Z,2.90
2019-04-28T10:26:43.169Z,3.17
2019-04-28T10:29:14.502Z,3.00
2019-04-28T10:31:46.475Z,3.17
2019-04-28T10:34:15.965Z,3.30
2019-04-28T10:36:46.259Z,2.90
2019-04-28T10:39:35.530Z,3.33
2019-04-28T10:42:05.550Z,3.20
2019-04-28T10:44:37.879Z,3.00
2019-04-28T10:47:07.821Z,3.10
2019-04-28T10:49:37.732Z,4.10
2019-04-28T10:52:07.199Z,2.75
2019-04-28T10:54:43.852Z,3.15
2019-04-28T10:57:13.337Z,3.12
2019-04-28T10:59:42.731Z,3.12
2019-04-28T11:02:12.151Z,3.20
2019-04-28T11:04:50.120Z,3.50
2019-04-28T11:07:21.169Z,3.67
2019-04-28T11:10:02.192Z,3.03
2019-04-28T11:12:34.781Z,3.27
2019-04-28T11:15:08.940Z,2.17
2019-04-28T11:17:38.948Z,2.27
2019-04-28T11:20:10.456Z,2.60
2019-04-28T11:22:41.009Z,2.30
2019-04-28T11:25:10.533Z,2.30
2019-04-28T11:27:41.298Z,2.72
2019-04-28T11:30:11.112Z,2.65
2019-04-28T11:32:44.492Z,2.20
2019-04-28T11:35:24.742Z,2.60
2019-04-28T11:37:54.282Z,3.17
2019-04-28T11:40:26.151Z,3.80
2019-04-28T11:42:57.009Z,3.60
2019-04-28T11:45:27.600Z,3.52
2019-04-28T11:47:57.191Z,3.17
2019-04-28T11:50:29.059Z,2.50
2019-04-28T11:52:59.815Z,2.20
2019-04-28T11:55:32.226Z,2.98
2019-04-28T11:58:07.321Z,2.60
2019-04-28T12:00:39.200Z,3.10
2019-04-28T12:03:09.684Z,3.10
2019-04-28T12:05:40.779Z,2.80
2019-04-28T12:08:20.791Z,1.90
2019-04-28T12:11:09.562Z,2.20
2019-04-28T12:13:53.810Z,2.42
2019-04-28T12:16:27.662Z,2.85
2019-04-28T12:19:16.660Z,2.62
2019-04-28T12:21:46.188Z,2.50
2019-04-28T12:24:15.690Z,2.77
2019-04-28T12:26:47.279Z,2.67
2019-04-28T12:29:22.326Z,2.67
2019-04-28T12:31:55.404Z,2.45
2019-04-28T12:34:24.925Z,2.62
2019-04-28T12:37:02.550Z,2.22
2019-04-28T12:39:37.066Z,2.55
2019-04-28T12:42:09.555Z,3.30
2019-04-28T12:44:43.690Z,3.20
2019-04-28T12:47:31.250Z,2.77
2019-04-28T12:50:16.683Z,2.70
2019-04-28T12:52:52.413Z,2.77
2019-04-28T12:55:27.784Z,2.92
2019-04-28T12:57:57.832Z,3.12
2019-04-28T13:00:40.438Z,65.28
2019-04-28T13:03:14.498Z,3.20
2019-04-28T13:06:02.398Z,2.92
2019-04-28T13:08:27.039Z,3.47
2019-04-28T13:10:57.634Z,2.70
2019-04-28T13:13:28.734Z,2.52
2019-04-28T13:16:00.694Z,2.27
2019-04-28T13:18:34.404Z,2.25
2019-04-28T13:21:08.725Z,2.17
2019-04-28T13:23:40.722Z,2.47
2019-04-28T13:26:16.128Z,2.60
2019-04-28T13:28:51.899Z,2.50
2019-04-28T13:31:27.507Z,3.25
2019-04-28T13:34:09.153Z,2.80
2019-04-28T13:36:38.654Z,3.40
2019-04-28T13:39:11.327Z,4.20
2019-04-28T13:41:42.229Z,3.40
2019-04-28T13:44:13.302Z,3.47
2019-04-28T13:46:45.387Z,3.47
2019-04-28T13:49:18.943Z,3.92
2019-04-28T13:51:51.563Z,3.70
2019-04-28T13:54:22.693Z,4.72
2019-04-28T13:56:55.134Z,4.10
2019-04-28T13:59:24.765Z,4.17
2019-04-28T14:01:57.374Z,4.45
2019-04-28T14:04:29.535Z,4.05
2019-04-28T14:06:59.073Z,4.17
2019-04-28T14:09:33.883Z,4.62
2019-04-28T14:12:05.694Z,3.98
2019-04-28T14:14:37.253Z,3.65
2019-04-28T14:17:11.324Z,3.62
2019-04-28T14:19:38.387Z,3.40
2019-04-28T14:22:08.397Z,3.65
2019-04-28T14:24:42.215Z,3.12
2019-04-28T14:27:13.684Z,3.65
2019-04-28T14:32:20.011Z,2.95
2019-04-28T14:34:51.904Z,2.83
2019-04-28T14:37:22.742Z,2.70
2019-04-28T14:39:53.428Z,2.75
2019-04-28T14:42:24.352Z,3.05
2019-04-28T14:44:54.816Z,3.37
2019-04-28T14:47:25.206Z,2.90
2019-04-28T14:49:54.672Z,2.90
2019-04-28T14:52:25.112Z,3.00
2019-04-28T14:54:54.538Z,3.37
2019-04-28T14:57:29.030Z,3.05
2019-04-28T15:00:03.533Z,3.37
2019-04-28T15:02:40.782Z,3.22
2019-04-28T15:05:26.215Z,2.90
2019-04-28T15:08:08.531Z,3.47
2019-04-28T15:10:45.007Z,3.92
2019-04-28T15:13:24.582Z,3.25
2019-04-28T15:15:58.499Z,3.02
2019-04-28T15:18:32.490Z,3.37
2019-04-28T15:21:13.386Z,3.25
2019-04-28T15:23:49.431Z,3.62
2019-04-28T15:26:28.003Z,3.75
2019-04-28T15:29:02.631Z,3.98
2019-04-28T15:31:39.012Z,3.47
2019-04-28T15:34:10.391Z,3.47
2019-04-28T15:36:45.973Z,3.98
2019-04-28T15:39:22.010Z,3.22
2019-04-28T15:41:59.821Z,3.30
2019-04-28T15:44:30.934Z,3.55
2019-04-28T15:47:00.572Z,3.50
2019-04-28T15:49:34.209Z,3.85
2019-04-28T15:52:08.252Z,3.80
2019-04-28T15:54:45.261Z,4.17
2019-04-28T15:57:20.844Z,4.08
2019-04-28T15:59:54.651Z,4.72
2019-04-28T16:02:26.567Z,4.83
2019-04-28T16:04:59.908Z,4.37
2019-04-28T16:07:35.491Z,4.70
2019-04-28T16:10:06.813Z,4.60
2019-04-28T16:12:39.436Z,5.25
2019-04-28T16:15:18.268Z,5.08
2019-04-28T16:17:54.035Z,4.58
2019-04-28T16:20:25.885Z,5.03
2019-04-28T16:22:58.641Z,5.08
2019-04-28T16:25:51.978Z,5.05
2019-04-28T16:28:30.054Z,4.87
2019-04-28T16:31:18.916Z,5.25
2019-04-28T16:33:52.510Z,4.78
2019-04-28T16:36:25.578Z,5.20
2019-04-28T16:39:12.805Z,4.95
2019-04-28T16:41:47.332Z,5.40
2019-04-28T16:44:29.666Z,5.17
2019-04-28T16:47:03.201Z,5.58
2019-04-28T16:49:44.334Z,5.58
2019-04-28T16:52:22.079Z,5.15
2019-04-28T16:54:53.310Z,5.60
2019-04-28T16:57:27.466Z,5.12
2019-04-28T17:00:02.538Z,5.10
2019-04-28T17:02:41.347Z,5.50
2019-04-28T17:05:13.999Z,5.22
2019-04-28T17:07:53.581Z,5.72
2019-04-28T17:10:31.875Z,5.17
2019-04-28T17:13:13.987Z,5.70
2019-04-28T17:15:46.348Z,5.40
2019-04-28T17:18:18.441Z,5.80
2019-04-28T17:20:54.034Z,6.80
2019-04-28T17:23:28.951Z,6.70
2019-04-28T17:26:15.297Z,6.65
2019-04-28T17:28:51.652Z,6.72
2019-04-28T17:31:29.451Z,7.17
2019-04-28T17:34:06.825Z,7.00
2019-04-28T17:36:52.508Z,7.22
2019-04-28T17:39:31.614Z,7.20
2019-04-28T17:42:29.295Z,7.15
2019-04-28T17:45:11.631Z,23.77
2019-04-28T17:47:56.939Z,8.43
2019-04-28T17:53:51.486Z,8.30
2019-04-28T17:56:34.339Z,6.37
2019-04-28T17:59:19.641Z,6.53
2019-04-28T18:02:02.151Z,9.18
2019-04-28T18:04:45.516Z,5.95
2019-04-28T18:07:32.436Z,13.13
2019-04-28T18:10:12.834Z,5.90
2019-04-28T18:16:13.367Z,10.05
2019-04-28T18:19:01.955Z,8.08
2019-04-28T18:21:33.531Z,7.15
2019-04-28T18:24:16.799Z,6.22
2019-04-28T18:26:59.632Z,6.53
2019-04-28T18:29:37.909Z,6.45
2019-04-28T18:32:59.821Z,9.83
2019-04-28T18:35:49.313Z,9.50
2019-04-28T18:38:34.798Z,7.62
2019-04-28T18:47:10.912Z,7.65
2019-04-28T18:49:46.521Z,8.23
2019-04-28T18:52:17.572Z,7.67
2019-04-28T18:54:49.877Z,8.18
2019-04-28T18:57:22.015Z,8.68
2019-04-28T18:59:53.556Z,8.40
2019-04-28T19:02:50.504Z,8.00
2019-04-28T19:05:28.900Z,7.30
2019-04-28T19:08:26.905Z,7.10
2019-04-28T19:11:10.833Z,7.78
2019-04-28T19:15:26.312Z,10.10
2019-04-28T19:19:14.058Z,9.93
2019-04-28T19:21:57.289Z,8.73
2019-04-28T19:24:31.249Z,9.10
2019-04-28T19:27:13.907Z,10.80
2019-04-28T19:29:57.637Z,9.00
2019-04-28T19:32:36.154Z,10.43
2019-04-28T19:35:20.996Z,8.48
2019-04-28T19:37:55.288Z,8.50
2019-04-28T19:40:34.227Z,9.63
2019-04-28T19:43:08.985Z,10.10
2019-04-28T19:46:04.519Z,8.75
2019-04-28T19:48:59.881Z,9.20
2019-04-28T19:51:36.986Z,9.90
2019-04-28T19:54:26.331Z,9.28
2019-04-28T19:57:19.484Z,9.78
2019-04-28T20:00:31.740Z,9.50
2019-04-28T20:03:15.806Z,8.68
2019-04-28T20:05:45.256Z,9.30
2019-04-28T20:08:18.523Z,9.75
2019-04-28T20:10:51.841Z,10.50
2019-04-28T20:13:47.707Z,10.55
2019-04-28T20:16:23.109Z,11.95
2019-04-28T20:18:58.292Z,10.63
2019-04-28T20:21:28.904Z,9.38
2019-04-28T20:24:01.964Z,8.33
2019-04-28T20:26:34.131Z,7.83
2019-04-28T20:29:04.670Z,9.53
2019-04-28T20:31:38.063Z,9.88
2019-04-28T20:34:10.453Z,9.53
2019-04-28T20:36:54.377Z,10.58
2019-04-28T20:39:25.618Z,9.98
2019-04-28T20:41:59.640Z,10.43
2019-04-28T20:44:38.966Z,7.17
2019-04-28T20:47:08.518Z,7.28
2019-04-28T20:49:40.979Z,8.98
2019-04-28T20:52:16.580Z,8.00
2019-04-28T20:54:53.436Z,8.43
2019-04-28T20:57:30.486Z,9.15
2019-04-28T21:00:02.180Z,8.40
2019-04-28T21:02:41.973Z,8.48
2019-04-28T21:05:19.252Z,8.48
2019-04-28T21:07:55.470Z,8.73
2019-04-28T21:10:38.151Z,8.60
2019-04-28T21:13:19.753Z,9.03
2019-04-28T21:15:58.105Z,9.50
2019-04-28T21:18:34.962Z,8.68
2019-04-28T21:21:12.899Z,9.18
2019-04-28T21:23:46.541Z,8.33
2019-04-28T21:26:21.740Z,10.58
2019-04-28T21:29:04.134Z,10.63
2019-04-28T21:31:35.265Z,9.75
2019-04-28T21:34:21.026Z,8.65
2019-04-28T21:36:51.510Z,9.85
2019-04-28T21:39:29.879Z,9.78
2019-04-28T21:42:05.185Z,10.08
2019-04-28T21:44:38.976Z,9.73
2019-04-28T21:47:33.248Z,9.58
2019-04-28T21:50:05.673Z,10.85
2019-04-28T21:52:40.011Z,11.20
2019-04-28T21:55:12.380Z,10.35
2019-04-28T21:57:43.580Z,11.57
2019-04-28T22:00:23.976Z,13.10
2019-04-28T22:03:14.776Z,13.38
2019-04-28T22:05:51.246Z,13.32
2019-04-28T22:08:25.192Z,14.78
2019-04-28T22:10:58.571Z,14.20
2019-04-28T22:13:29.592Z,14.45
2019-04-28T22:15:59.139Z,15.18
2019-04-28T22:18:43.392Z,14.40
2019-04-28T22:21:09.475Z,17.17
2019-04-28T22:23:52.350Z,17.82
2019-04-28T22:26:44.151Z,17.23
2019-04-28T22:29:22.385Z,18.17
2019-04-28T22:31:53.974Z,19.52
2019-04-28T22:34:24.421Z,19.82
2019-04-28T22:36:57.146Z,19.05
2019-04-28T22:39:28.555Z,19.67
2019-04-28T22:42:02.811Z,19.20
2019-04-28T22:47:06.013Z,19.12
2019-04-28T22:49:37.442Z,19.90
2019-04-28T22:52:08.555Z,20.00
2019-04-28T22:54:45.220Z,20.40
2019-04-28T22:57:18.295Z,20.62
2019-04-28T22:59:54.950Z,19.82
2019-04-28T23:02:26.458Z,20.30
2019-04-28T23:05:02.832Z,20.60
2019-04-28T23:07:34.926Z,21.00
2019-04-28T23:10:07.293Z,21.70
2019-04-28T23:12:46.888Z,20.97
2019-04-28T23:15:17.323Z,19.60
2019-04-28T23:17:51.717Z,15.30
2019-04-28T23:20:25.418Z,20.08
2019-04-28T23:22:58.615Z,20.88
2019-04-28T23:25:30.932Z,19.85
2019-04-28T23:28:01.080Z,20.00
2019-04-28T23:30:46.274Z,20.48
2019-04-28T23:33:16.197Z,20.17
2019-04-28T23:35:46.512Z,19.75
2019-04-28T23:38:17.528Z,19.80
2019-04-28T23:40:51.486Z,19.50
2019-04-28T23:43:23.153Z,19.62
2019-04-28T23:45:52.586Z,19.35
2019-04-28T23:48:22.135Z,19.25
2019-04-28T23:50:55.330Z,19.02
2019-04-28T23:53:45.172Z,19.17
2019-04-28T23:56:17.766Z,18.32
2019-04-28T23:58:48.225Z,18.57
